Time;durP1;ratioP1;P1;durP2;ratioP2;P2;SDS_P1;SDS_P2;PMS_P1;PMS_P2;Temp;Humidity;BMP_temperature;BMP_pressure;BME280_temperature;BME280_humidity;BME280_pressure;Samples;Min_cycle;Max_cycle;Signal;HPM_P1;HPM_P2
2023/01/17 00:01:18;;;;;;;1.13;0.67;;;;;;;8.21;75.78;97877.34;5111622;28;20493;-62
2023/01/17 00:12:02;;;;;;;0.47;0.47;;;;;;;8.12;75.82;97868.72;5093137;28;20197;-60
2023/01/17 00:14:29;;;;;;;0.70;0.70;;;;;;;8.02;76.85;97867.84;5111320;28;20213;-60
2023/01/17 00:16:56;;;;;;;1.50;1.17;;;;;;;7.96;76.76;97868.34;5111983;28;20193;-62
2023/01/17 01:34:10;;;;;;;1.10;1.03;;;;;;;7.06;84.42;97817.84;5109861;28;20244;-62
2023/01/17 01:36:36;;;;;;;0.47;0.47;;;;;;;7.01;85.56;97810.59;5109958;28;20200;-62
2023/01/17 01:39:03;;;;;;;2.03;1.07;;;;;;;7.09;84.61;97801.56;5110066;28;20225;-60
2023/01/17 01:41:32;;;;;;;0.80;0.80;;;;;;;6.98;85.38;97802.38;5109814;28;20201;-60
2023/01/17 01:43:58;;;;;;;0.57;0.57;;;;;;;7.07;84.90;97811.84;5109756;28;20236;-60
2023/01/17 01:46:30;;;;;;;1.17;0.80;;;;;;;7.13;84.82;97823.28;5109821;28;20197;-60
2023/01/17 01:49:00;;;;;;;0.47;0.43;;;;;;;7.12;84.69;97811.47;5110078;28;20220;-62
2023/01/17 01:51:33;;;;;;;1.13;1.03;;;;;;;7.21;85.15;97810.75;5109876;28;20232;-62
2023/01/17 01:54:03;;;;;;;0.63;0.57;;;;;;;7.33;84.09;97808.97;5109828;28;20221;-62
2023/01/17 01:56:32;;;;;;;0.73;0.73;;;;;;;7.35;83.50;97807.94;5109863;28;20205;-62
2023/01/17 01:59:02;;;;;;;1.50;0.77;;;;;;;7.38;83.19;97786.53;5109943;28;20474;-62
2023/01/17 02:01:30;;;;;;;1.40;0.80;;;;;;;7.30;83.92;97773.63;5109713;28;20197;-60
2023/01/17 02:03:57;;;;;;;0.47;0.47;;;;;;;7.40;83.25;97775.31;5109405;28;20331;-60
2023/01/17 02:06:29;;;;;;;1.17;0.40;;;;;;;7.38;82.93;97782.25;5109696;28;20197;-62
2023/01/17 02:08:59;;;;;;;0.83;0.83;;;;;;;7.34;83.67;97775.81;5109762;28;20265;-62
2023/01/17 02:11:27;;;;;;;0.60;0.60;;;;;;;7.53;82.56;97774.31;5109571;28;20205;-60
2023/01/17 02:13:55;;;;;;;0.57;0.53;;;;;;;7.62;81.80;97786.28;5109484;28;20221;-60
2023/01/17 02:16:42;;;;;;;0.70;0.60;;;;;;;7.53;82.62;97794.66;5109490;28;20197;-60
2023/01/17 02:19:37;;;;;;;0.77;0.40;;;;;;;7.58;82.62;97787.50;5109325;28;20217;-60
2023/01/17 02:22:26;;;;;;;0.60;0.60;;;;;;;7.34;84.53;97796.16;5081339;28;20220;-60
2023/01/17 02:25:11;;;;;;;0.50;0.50;;;;;;;7.17;85.81;97789.06;5109285;28;20225;-62
2023/01/17 02:27:53;;;;;;;0.80;0.60;;;;;;;7.00;87.37;97768.31;5109431;28;20204;-62
2023/01/17 02:30:35;;;;;;;0.87;0.87;;;;;;;7.32;84.37;97770.03;5109518;28;20228;-62
2023/01/17 02:33:25;;;;;;;0.30;0.30;;;;;;;7.36;84.37;97770.59;5109317;28;20193;-60
2023/01/17 02:36:03;;;;;;;1.30;0.77;;;;;;;7.35;84.74;97776.63;5109314;28;20688;-60
2023/01/17 02:38:38;;;;;;;1.07;0.80;;;;;;;7.35;83.86;97771.53;5109355;28;20252;-60
2023/01/17 02:41:09;;;;;;;0.40;0.40;;;;;;;7.56;83.00;97769.00;5109408;28;20207;-60
2023/01/17 02:43:38;;;;;;;0.70;0.70;;;;;;;7.50;83.24;97760.13;5109148;28;20604;-62
2023/01/17 02:46:06;;;;;;;0.50;0.50;;;;;;;7.57;83.31;97748.53;5109638;28;20216;-62
2023/01/17 02:48:36;;;;;;;0.90;0.57;;;;;;;7.64;82.83;97751.38;5109055;28;20228;-62
2023/01/17 02:51:21;;;;;;;0.83;0.80;;;;;;;7.61;82.77;97741.44;5109253;28;20197;-62
2023/01/17 02:53:59;;;;;;;0.57;0.30;;;;;;;7.66;83.12;97749.53;5112917;28;20236;-62
2023/01/17 02:56:40;;;;;;;0.53;0.47;;;;;;;7.62;83.94;97740.50;5113172;28;20204;-62
2023/01/17 02:59:20;;;;;;;1.17;1.07;;;;;;;7.53;84.00;97738.72;5112839;28;20223;-62
2023/01/17 03:02:03;;;;;;;1.50;0.83;;;;;;;7.45;84.54;97737.63;5112690;28;20197;-62
2023/01/17 03:04:36;;;;;;;0.90;0.90;;;;;;;7.54;84.60;97741.16;5112963;28;20232;-62
2023/01/17 03:07:08;;;;;;;1.33;0.80;;;;;;;7.54;85.55;97735.28;5112707;28;20193;-62
2023/01/17 03:09:36;;;;;;;0.90;0.80;;;;;;;7.56;85.62;97738.47;5112757;28;20620;-62
2023/01/17 03:12:04;;;;;;;0.90;0.67;;;;;;;7.55;85.82;97721.59;5112833;28;20585;-62
2023/01/17 03:14:31;;;;;;;1.47;1.13;;;;;;;7.37;86.29;97719.63;5112435;28;20707;-60
2023/01/17 03:16:59;;;;;;;0.67;0.67;;;;;;;7.42;87.02;97725.16;5112545;28;20408;-60
2023/01/17 03:19:26;;;;;;;1.03;0.90;;;;;;;7.44;88.07;97714.84;5112400;28;20233;-60
2023/01/17 03:21:53;;;;;;;0.97;0.60;;;;;;;7.58;86.80;97708.63;5112531;28;20204;-60
2023/01/17 03:24:20;;;;;;;1.00;0.73;;;;;;;7.48;86.80;97716.22;5112178;28;20319;-60
2023/01/17 03:26:47;;;;;;;0.37;0.37;;;;;;;7.54;86.84;97714.91;5112177;28;20653;-60
2023/01/17 03:29:13;;;;;;;0.60;0.60;;;;;;;7.70;85.23;97715.25;5112118;28;20228;-62
2023/01/17 03:31:40;;;;;;;0.80;0.80;;;;;;;7.88;83.78;97716.31;5112400;28;20424;-62
2023/01/17 03:34:09;;;;;;;0.40;0.37;;;;;;;7.86;84.73;97720.69;5111997;28;20226;-60
2023/01/17 03:36:35;;;;;;;1.53;0.80;;;;;;;7.93;83.72;97721.00;5112361;28;20293;-60
2023/01/17 03:39:02;;;;;;;0.40;0.40;;;;;;;8.04;83.75;97718.34;5112124;28;20217;-62
2023/01/17 03:41:29;;;;;;;1.60;1.20;;;;;;;8.02;84.67;97724.50;5112105;28;20201;-62
2023/01/17 03:43:56;;;;;;;0.90;0.90;;;;;;;8.02;86.55;97704.16;5111953;28;20233;-62
2023/01/17 03:46:24;;;;;;;0.30;0.30;;;;;;;7.79;87.25;97714.50;5111957;28;20603;-62
2023/01/17 03:48:51;;;;;;;1.30;0.60;;;;;;;7.94;87.65;97718.31;5111869;28;20232;-62
2023/01/17 03:51:20;;;;;;;1.03;0.77;;;;;;;7.90;89.88;97709.31;5111869;28;20205;-60
2023/01/17 03:53:47;;;;;;;1.27;1.00;;;;;;;7.87;92.05;97708.78;5111811;28;20228;-60
2023/01/17 03:56:14;;;;;;;0.57;0.57;;;;;;;7.87;92.97;97699.41;5111727;27;20201;-60
2023/01/17 03:58:41;;;;;;;1.13;0.83;;;;;;;7.80;93.69;97705.94;5111472;28;20217;-60
2023/01/17 04:01:08;;;;;;;1.03;0.60;;;;;;;7.77;95.07;97690.94;5111904;28;20194;-60
2023/01/17 04:03:35;;;;;;;1.07;0.70;;;;;;;7.79;93.88;97699.22;5111297;28;20706;-62
2023/01/17 04:06:02;;;;;;;0.63;0.63;;;;;;;8.04;92.13;97697.19;5111572;28;20200;-62
2023/01/17 04:08:30;;;;;;;0.40;0.40;;;;;;;8.19;89.70;97693.34;5111402;28;20221;-62
2023/01/17 04:10:57;;;;;;;0.70;0.50;;;;;;;8.37;88.38;97694.31;5111517;28;20293;-62
2023/01/17 04:13:24;;;;;;;0.70;0.70;;;;;;;8.53;87.17;97693.06;5111301;28;20225;-62
2023/01/17 04:15:51;;;;;;;0.40;0.40;;;;;;;8.58;87.05;97683.25;5111357;28;20212;-60
2023/01/17 04:18:21;;;;;;;1.17;0.60;;;;;;;8.69;85.93;97685.69;5111090;28;20193;-61
2023/01/17 04:20:49;;;;;;;0.37;0.37;;;;;;;8.81;84.42;97687.19;5111259;28;20682;-62
2023/01/17 04:23:16;;;;;;;0.40;0.40;;;;;;;8.83;85.35;97694.69;5111067;28;20204;-60
2023/01/17 04:25:45;;;;;;;1.67;0.70;;;;;;;8.72;84.98;97695.59;5111291;28;20193;-62
2023/01/17 04:28:12;;;;;;;0.37;0.33;;;;;;;8.76;84.41;97702.06;5111121;28;20197;-62
2023/01/17 04:30:39;;;;;;;0.40;0.40;;;;;;;8.86;81.37;97704.59;5111249;28;20204;-60
2023/01/17 04:33:06;;;;;;;1.27;0.33;;;;;;;8.97;80.96;97721.50;5110727;28;20211;-60
2023/01/17 04:35:33;;;;;;;1.20;1.10;;;;;;;9.05;81.43;97729.31;5111304;28;20200;-60
2023/01/17 04:38:00;;;;;;;0.93;0.67;;;;;;;9.02;80.75;97732.13;5110965;28;20427;-62
2023/01/17 04:40:28;;;;;;;1.40;0.87;;;;;;;9.12;80.17;97740.56;5110868;28;20299;-62
2023/01/17 04:42:56;;;;;;;1.47;1.20;;;;;;;9.14;80.64;97732.78;5110569;28;20189;-62
2023/01/17 04:45:23;;;;;;;2.97;0.63;;;;;;;9.13;83.71;97721.75;5110706;28;20244;-63
2023/01/17 04:47:50;;;;;;;2.00;1.13;;;;;;;9.00;85.14;97721.25;5110817;28;20202;-60
2023/01/17 04:50:17;;;;;;;0.50;0.50;;;;;;;9.00;84.00;97727.16;5110750;28;20213;-62
2023/01/17 04:52:44;;;;;;;0.80;0.63;;;;;;;8.84;84.17;97729.41;5110543;28;20676;-63
2023/01/17 04:55:11;;;;;;;1.23;0.87;;;;;;;9.00;83.84;97742.44;5110500;28;20605;-60
2023/01/17 04:57:38;;;;;;;1.03;0.50;;;;;;;9.02;82.95;97740.56;5110383;28;20197;-61
2023/01/17 05:00:07;;;;;;;1.20;1.10;;;;;;;9.05;83.56;97754.78;5110345;28;20235;-60
2023/01/17 05:02:34;;;;;;;1.73;1.47;;;;;;;9.14;81.54;97753.19;5110382;28;20205;-60
2023/01/17 05:05:01;;;;;;;3.37;0.93;;;;;;;9.23;80.79;97768.47;5110492;28;20229;-60
2023/01/17 05:07:28;;;;;;;2.47;1.30;;;;;;;9.23;80.66;97760.81;5110346;28;20697;-61
2023/01/17 05:09:55;;;;;;;3.57;1.27;;;;;;;9.27;80.05;97769.00;5110244;28;20713;-61
2023/01/17 05:12:23;;;;;;;0.93;0.93;;;;;;;9.44;78.99;97777.72;5110278;28;20219;-61
2023/01/17 05:14:50;;;;;;;0.87;0.83;;;;;;;9.45;78.29;97771.66;5110039;28;20227;-60
2023/01/17 05:17:18;;;;;;;0.83;0.73;;;;;;;9.64;76.47;97770.84;5110101;28;20193;-60
2023/01/17 05:19:46;;;;;;;0.53;0.53;;;;;;;9.44;77.73;97786.19;5109955;28;20228;-61
2023/01/17 05:22:14;;;;;;;1.33;1.17;;;;;;;9.55;77.59;97781.88;5110099;28;20557;-60
2023/01/17 05:24:42;;;;;;;1.47;0.87;;;;;;;9.29;79.07;97782.44;5110365;28;20304;-62
2023/01/17 05:27:09;;;;;;;0.60;0.40;;;;;;;9.50;78.16;97789.94;5110062;28;20204;-63
2023/01/17 05:29:36;;;;;;;1.10;1.00;;;;;;;9.60;77.42;97790.75;5110114;28;20228;-62
2023/01/17 05:32:03;;;;;;;0.80;0.77;;;;;;;9.65;76.40;97778.34;5109938;28;20200;-62
2023/01/17 05:34:31;;;;;;;1.10;0.80;;;;;;;9.63;76.34;97785.38;5110191;28;20232;-62
2023/01/17 05:36:58;;;;;;;0.37;0.33;;;;;;;9.80;75.57;97770.25;5110034;28;20204;-62
2023/01/17 05:39:25;;;;;;;1.53;0.90;;;;;;;9.79;76.05;97782.22;5109897;28;20228;-62
2023/01/17 05:41:52;;;;;;;2.43;1.00;;;;;;;9.86;75.08;97790.13;5109717;28;20197;-63
2023/01/17 05:44:19;;;;;;;0.93;0.90;;;;;;;9.78;76.20;97788.28;5109560;28;20265;-61
2023/01/17 05:46:46;;;;;;;4.93;0.80;;;;;;;9.51;76.79;97802.56;5109780;28;20692;-60
2023/01/17 05:49:13;;;;;;;0.70;0.70;;;;;;;9.63;77.77;97798.13;5109710;28;20228;-61
2023/01/17 05:51:41;;;;;;;1.20;1.00;;;;;;;9.60;77.39;97795.84;5109840;28;20212;-62
2023/01/17 05:54:08;;;;;;;0.60;0.50;;;;;;;9.69;76.62;97795.03;5109379;28;20735;-61
2023/01/17 05:56:35;;;;;;;0.63;0.30;;;;;;;9.67;76.89;97789.25;5109880;28;20787;-60
2023/01/17 05:59:02;;;;;;;0.43;0.43;;;;;;;9.58;77.40;97802.03;5109641;28;20217;-61
2023/01/17 06:01:29;;;;;;;0.77;0.70;;;;;;;9.57;77.63;97805.50;5109849;28;20216;-60
2023/01/17 06:03:55;;;;;;;0.77;0.77;;;;;;;9.61;76.97;97807.66;5109644;28;20225;-62
2023/01/17 06:06:22;;;;;;;0.63;0.37;;;;;;;9.56;78.38;97814.09;5109724;28;20215;-62
2023/01/17 06:08:51;;;;;;;0.40;0.40;;;;;;;9.61;77.35;97812.75;5109598;28;20220;-62
2023/01/17 06:11:18;;;;;;;1.13;0.67;;;;;;;9.62;77.59;97806.69;5110017;28;20194;-63
2023/01/17 06:13:45;;;;;;;0.83;0.67;;;;;;;9.59;78.62;97801.88;5109576;28;20494;-62
2023/01/17 06:16:12;;;;;;;0.60;0.53;;;;;;;9.62;78.53;97813.56;5109583;28;20193;-62
2023/01/17 06:18:39;;;;;;;0.80;0.70;;;;;;;9.60;78.10;97818.81;5109749;28;20213;-62
2023/01/17 06:21:06;;;;;;;0.57;0.57;;;;;;;9.59;78.88;97822.28;5109653;28;20590;-62
2023/01/17 06:23:33;;;;;;;0.93;0.90;;;;;;;9.58;78.88;97823.25;5109643;28;20217;-60
2023/01/17 06:26:04;;;;;;;0.60;0.60;;;;;;;9.70;77.84;97817.03;5109909;28;20236;-60
2023/01/17 06:28:31;;;;;;;0.17;0.17;;;;;;;9.61;79.46;97817.84;5113543;28;20225;-60
2023/01/17 06:30:58;;;;;;;0.73;0.53;;;;;;;9.49;80.53;97818.94;5113404;28;20288;-60
2023/01/17 06:33:25;;;;;;;2.73;0.90;;;;;;;9.54;79.40;97809.16;5113068;28;20647;-61
2023/01/17 06:35:54;;;;;;;1.00;0.70;;;;;;;9.50;79.84;97810.34;5113321;28;20204;-61
2023/01/17 06:38:21;;;;;;;1.00;0.77;;;;;;;9.68;78.65;97808.69;5113097;27;20677;-60
2023/01/17 06:40:48;;;;;;;0.67;0.30;;;;;;;9.75;78.19;97806.44;5113099;28;20678;-61
2023/01/17 06:43:17;;;;;;;0.30;0.30;;;;;;;9.88;78.13;97808.69;5113036;28;20194;-60
2023/01/17 06:45:44;;;;;;;0.60;0.60;;;;;;;9.96;76.78;97801.13;5113296;28;20236;-60
2023/01/17 06:48:10;;;;;;;1.03;0.60;;;;;;;9.92;77.06;97804.94;5112879;28;20225;-62
2023/01/17 06:50:37;;;;;;;0.60;0.60;;;;;;;9.94;77.38;97801.25;5112921;28;20201;-63
2023/01/17 06:53:07;;;;;;;0.70;0.70;;;;;;;10.06;77.24;97816.41;5112906;28;20201;-63
2023/01/17 06:55:35;;;;;;;0.60;0.60;;;;;;;10.15;75.76;97815.59;5113025;28;20209;-63
2023/01/17 06:58:02;;;;;;;0.73;0.73;;;;;;;10.09;77.99;97805.94;5112760;28;20197;-63
2023/01/17 07:00:33;;;;;;;1.03;0.60;;;;;;;10.04;78.17;97797.91;5112883;28;20198;-63
2023/01/17 07:03:00;;;;;;;0.60;0.50;;;;;;;9.85;79.36;97797.00;5113012;28;20251;-63
2023/01/17 07:05:27;;;;;;;0.40;0.40;;;;;;;9.96;78.53;97806.25;5112837;28;20243;-59
2023/01/17 07:07:55;;;;;;;1.57;0.80;;;;;;;10.01;78.60;97824.53;5112554;28;20197;-60
2023/01/17 07:10:22;;;;;;;0.63;0.63;;;;;;;9.94;79.51;97828.56;5112588;28;20416;-63
2023/01/17 07:12:50;;;;;;;1.10;1.00;;;;;;;9.95;79.56;97840.38;5112661;28;20220;-63
2023/01/17 07:15:17;;;;;;;0.70;0.67;;;;;;;10.01;80.57;97850.06;5112436;28;20307;-63
2023/01/17 07:17:45;;;;;;;0.30;0.30;;;;;;;10.07;79.63;97839.28;5112675;28;20203;-62
2023/01/17 07:20:12;;;;;;;0.70;0.63;;;;;;;10.11;79.66;97848.25;5112551;28;20325;-60
2023/01/17 07:22:39;;;;;;;1.03;0.93;;;;;;;10.18;79.97;97839.13;5112286;28;20244;-61
2023/01/17 07:25:07;;;;;;;0.77;0.70;;;;;;;10.19;80.00;97827.16;5112334;28;20229;-63
2023/01/17 07:27:34;;;;;;;0.77;0.77;;;;;;;10.30;80.11;97836.44;5112500;28;20744;-60
2023/01/17 07:30:00;;;;;;;0.60;0.60;;;;;;;10.37;78.96;97840.03;5112293;28;20209;-63
2023/01/17 07:32:28;;;;;;;1.50;0.80;;;;;;;10.42;79.90;97842.97;5112199;28;20189;-63
2023/01/17 07:34:57;;;;;;;1.23;1.00;;;;;;;10.56;79.78;97850.19;5111892;28;20224;-61
2023/01/17 07:37:25;;;;;;;0.50;0.50;;;;;;;10.65;78.91;97854.44;5111911;28;20296;-60
2023/01/17 07:39:52;;;;;;;1.23;0.90;;;;;;;10.83;78.49;97851.13;5111921;28;20252;-63
2023/01/17 07:42:19;;;;;;;1.60;1.10;;;;;;;10.80;79.00;97856.53;5111968;28;20197;-63
2023/01/17 07:44:46;;;;;;;0.70;0.70;;;;;;;10.74;78.88;97854.53;5111730;28;20233;-62
2023/01/17 07:47:13;;;;;;;1.50;1.33;;;;;;;10.72;80.11;97836.78;5112205;28;20201;-63
2023/01/17 07:49:40;;;;;;;1.67;0.97;;;;;;;10.62;80.92;97836.84;5112239;28;20221;-62
2023/01/17 07:52:08;;;;;;;0.60;0.60;;;;;;;10.58;81.38;97843.16;5112032;28;20205;-63
2023/01/17 07:54:35;;;;;;;0.83;0.80;;;;;;;10.64;81.48;97837.47;5111750;28;20221;-62
2023/01/17 07:57:02;;;;;;;1.37;1.07;;;;;;;10.69;81.94;97843.94;5112186;28;20201;-62
2023/01/17 07:59:29;;;;;;;1.20;0.87;;;;;;;10.79;81.21;97855.72;5111793;27;20212;-63
2023/01/17 08:01:56;;;;;;;1.27;1.00;;;;;;;10.93;81.05;97851.88;5112079;28;20217;-62
2023/01/17 08:04:25;;;;;;;1.07;0.80;;;;;;;10.93;81.39;97851.88;5111513;28;20213;-63
2023/01/17 08:06:53;;;;;;;2.13;1.23;;;;;;;11.04;82.02;97854.22;5111847;28;20589;-61
2023/01/17 08:09:22;;;;;;;1.70;0.80;;;;;;;11.15;80.91;97867.78;5111469;28;20311;-63
2023/01/17 08:11:49;;;;;;;1.07;0.80;;;;;;;11.22;80.95;97871.34;5111600;28;20225;-63
2023/01/17 08:14:16;;;;;;;0.77;0.73;;;;;;;11.28;81.16;97881.81;5111485;28;20217;-61
2023/01/17 08:16:43;;;;;;;1.47;1.37;;;;;;;11.24;81.19;97877.13;5111522;28;20205;-63
2023/01/17 08:19:10;;;;;;;0.43;0.43;;;;;;;11.37;81.09;97885.25;5111460;28;20209;-61
2023/01/17 08:21:37;;;;;;;1.43;1.33;;;;;;;11.26;82.02;97885.47;5111515;28;20235;-63
2023/01/17 08:24:04;;;;;;;1.63;1.07;;;;;;;11.34;81.78;97870.19;5111287;28;20217;-63
2023/01/17 08:26:33;;;;;;;1.77;1.30;;;;;;;11.27;82.61;97871.72;5111239;28;20232;-61
2023/01/17 08:29:01;;;;;;;1.07;0.90;;;;;;;11.33;82.17;97866.03;5111118;28;20221;-63
2023/01/17 08:31:29;;;;;;;1.83;1.30;;;;;;;11.29;84.76;97887.75;5111357;28;20201;-63
2023/01/17 08:33:56;;;;;;;3.23;1.57;;;;;;;11.27;83.78;97884.53;5111142;28;20221;-61
2023/01/17 08:36:26;;;;;;;1.70;1.10;;;;;;;11.42;83.68;97872.03;5111262;28;20198;-63
2023/01/17 08:38:53;;;;;;;2.10;0.97;;;;;;;11.49;82.97;97867.91;5110718;28;20217;-61
2023/01/17 08:41:21;;;;;;;1.17;1.07;;;;;;;11.52;83.80;97881.25;5111024;28;20204;-61
2023/01/17 08:43:50;;;;;;;1.07;1.00;;;;;;;11.54;84.53;97876.78;5110741;28;20725;-63
2023/01/17 08:46:17;;;;;;;1.07;0.67;;;;;;;11.61;84.59;97876.22;5110720;28;20235;-61
2023/01/17 08:48:44;;;;;;;2.30;1.13;;;;;;;11.54;84.88;97881.88;5110644;28;20213;-63
2023/01/17 08:51:11;;;;;;;1.40;1.30;;;;;;;11.63;86.89;97880.19;5109866;28;20205;-63
2023/01/17 08:53:39;;;;;;;2.00;1.40;;;;;;;11.68;85.19;97872.88;5110778;28;20220;-61
2023/01/17 08:56:06;;;;;;;1.07;0.90;;;;;;;11.83;84.91;97880.84;5110750;28;20201;-61
2023/01/17 08:58:34;;;;;;;1.30;1.17;;;;;;;12.07;83.60;97882.00;5110355;28;20222;-61
2023/01/17 09:01:04;;;;;;;1.10;1.00;;;;;;;12.41;80.79;97882.88;5110912;28;20640;-61
2023/01/17 09:03:32;;;;;;;1.17;0.97;;;;;;;12.62;80.37;97895.34;5110511;28;20300;-61
2023/01/17 09:06:04;;;;;;;1.47;1.03;;;;;;;12.93;79.52;97889.66;5110468;28;20229;-63
2023/01/17 09:08:31;;;;;;;1.50;1.20;;;;;;;13.22;80.16;97888.47;5110405;28;20218;-63
2023/01/17 09:10:58;;;;;;;1.77;1.10;;;;;;;13.62;76.62;97895.47;5110460;28;20696;-63
2023/01/17 09:13:25;;;;;;;1.53;1.13;;;;;;;13.59;75.26;97890.66;5110194;28;20219;-63
2023/01/17 09:15:56;;;;;;;2.00;1.00;;;;;;;13.74;74.88;97891.63;5110503;28;20193;-63
2023/01/17 09:18:25;;;;;;;2.20;0.80;;;;;;;13.67;74.92;97902.69;5110039;28;20602;-63
2023/01/17 09:20:54;;;;;;;1.43;1.20;;;;;;;13.48;77.57;97899.47;5110226;28;20196;-63
2023/01/17 09:23:21;;;;;;;2.70;1.30;;;;;;;14.02;78.75;97896.41;5110373;28;20253;-63
2023/01/17 09:25:52;;;;;;;2.27;1.50;;;;;;;14.23;73.61;97899.31;5110117;28;20289;-63
2023/01/17 09:28:19;;;;;;;1.60;1.17;;;;;;;14.48;72.65;97887.19;5110022;28;20197;-63
2023/01/17 09:30:46;;;;;;;3.47;1.50;;;;;;;14.24;72.83;97889.81;5110196;28;20270;-61
2023/01/17 09:33:13;;;;;;;2.27;1.67;;;;;;;14.47;72.71;97879.66;5110205;28;20193;-63
2023/01/17 09:35:41;;;;;;;1.17;1.07;;;;;;;14.42;72.47;97872.41;5110010;28;20201;-62
2023/01/17 09:38:08;;;;;;;1.53;1.37;;;;;;;14.64;73.10;97881.22;5109911;28;20224;-61
2023/01/17 09:40:38;;;;;;;2.13;1.20;;;;;;;14.89;73.97;97878.56;5110031;28;20211;-63
2023/01/17 09:43:15;;;;;;;2.27;1.43;;;;;;;14.79;71.91;97877.97;5110018;28;20205;-63
2023/01/17 09:45:41;;;;;;;1.30;1.20;;;;;;;14.86;72.68;97877.09;5110170;28;20697;-61
2023/01/17 09:48:16;;;;;;;1.43;1.10;;;;;;;15.23;70.67;97869.69;5109765;28;20201;-64
2023/01/17 09:50:53;;;;;;;1.87;1.43;;;;;;;15.24;69.84;97879.84;5109933;28;20253;-64
2023/01/17 09:53:21;;;;;;;2.80;1.60;;;;;;;15.33;70.72;97871.09;5109721;28;20197;-63
2023/01/17 09:55:53;;;;;;;1.47;1.20;;;;;;;15.18;69.53;97862.47;5110004;28;20207;-62
2023/01/17 09:58:23;;;;;;;2.33;1.47;;;;;;;15.45;70.18;97876.66;5109634;28;20193;-62
2023/01/17 10:01:00;;;;;;;1.90;1.17;;;;;;;15.70;68.10;97871.34;5110305;28;20204;-62
2023/01/17 10:03:39;;;;;;;2.37;1.43;;;;;;;16.14;68.38;97858.53;5114170;28;20219;-63
2023/01/17 10:06:36;;;;;;;2.03;1.10;;;;;;;16.19;65.90;97845.91;5113982;28;20594;-62
2023/01/17 10:09:18;;;;;;;1.87;1.30;;;;;;;16.04;66.20;97843.31;5113670;28;20713;-63
2023/01/17 10:12:03;;;;;;;2.00;1.53;;;;;;;15.74;68.01;97857.16;5114025;28;20201;-63
2023/01/17 10:14:48;;;;;;;2.47;1.37;;;;;;;15.81;66.35;97858.03;5113589;28;20343;-64
2023/01/17 10:17:26;;;;;;;1.03;0.93;;;;;;;15.66;69.10;97854.59;5113968;28;20208;-62
2023/01/17 10:20:03;;;;;;;1.97;1.27;;;;;;;15.69;69.79;97859.44;5113329;28;20213;-62
2023/01/17 10:22:50;;;;;;;1.03;0.97;;;;;;;15.37;66.53;97866.41;5113840;28;20636;-63
2023/01/17 10:25:48;;;;;;;0.97;0.90;;;;;;;15.68;67.10;97868.13;5113395;28;20225;-64
2023/01/17 10:28:18;;;;;;;0.97;0.90;;;;;;;15.98;66.75;97849.19;5092822;28;20215;-64
2023/01/17 10:30:49;;;;;;;1.50;1.27;;;;;;;16.18;64.69;97853.84;5113562;28;20193;-64
2023/01/17 10:33:19;;;;;;;0.60;0.50;;;;;;;16.35;63.81;97844.13;5113565;28;20195;-63
2023/01/17 10:35:56;;;;;;;1.33;0.80;;;;;;;15.91;66.17;97843.16;5113186;28;20201;-63
2023/01/17 10:38:29;;;;;;;1.37;1.07;;;;;;;16.30;67.06;97836.94;5113381;27;20210;-63
2023/01/17 10:41:02;;;;;;;1.83;1.03;;;;;;;16.58;64.48;97834.53;5113198;28;20685;-64
2023/01/17 10:43:43;;;;;;;0.90;0.90;;;;;;;16.30;67.96;97826.63;5113297;28;20229;-63
2023/01/17 10:46:16;;;;;;;1.50;1.00;;;;;;;17.07;62.47;97839.06;5112914;28;20231;-64
2023/01/17 10:48:45;;;;;;;1.33;1.03;;;;;;;16.97;62.02;97834.22;5113459;28;20225;-62
2023/01/17 10:51:27;;;;;;;1.20;1.10;;;;;;;17.42;59.84;97841.78;5113230;28;20232;-62
2023/01/17 10:54:12;;;;;;;1.83;1.30;;;;;;;17.46;57.22;97829.31;5113304;28;20216;-62
2023/01/17 10:56:41;;;;;;;1.03;0.87;;;;;;;17.43;55.58;97822.75;5113465;28;20206;-63
2023/01/17 10:59:26;;;;;;;0.87;0.83;;;;;;;16.92;57.37;97815.88;5112710;28;20220;-64
2023/01/17 11:01:53;;;;;;;1.40;1.30;;;;;;;16.35;56.88;97819.16;5113013;28;20202;-62
2023/01/17 11:04:22;;;;;;;0.50;0.50;;;;;;;16.61;57.13;97828.19;5112537;28;20231;-62
2023/01/17 11:07:13;;;;;;;0.97;0.83;;;;;;;16.71;56.56;97820.97;5112689;28;20632;-63
2023/01/17 11:09:42;;;;;;;1.63;1.23;;;;;;;16.93;56.23;97812.34;5112405;28;20229;-64
2023/01/17 11:12:22;;;;;;;1.87;0.80;;;;;;;16.95;54.63;97820.69;5112585;28;20204;-64
2023/01/17 11:14:57;;;;;;;1.20;1.00;;;;;;;16.82;58.08;97820.53;5111966;28;20227;-64
2023/01/17 11:17:26;;;;;;;1.33;0.80;;;;;;;17.14;58.28;97818.50;5112668;28;20260;-64
2023/01/17 11:19:54;;;;;;;1.07;0.73;;;;;;;17.63;55.20;97821.13;5113014;28;20219;-64
2023/01/17 11:22:21;;;;;;;1.13;0.97;;;;;;;17.91;56.44;97822.13;5112519;28;20665;-64
2023/01/17 11:24:53;;;;;;;0.83;0.83;;;;;;;17.63;53.79;97810.00;5112076;28;20222;-64
2023/01/17 11:27:25;;;;;;;0.50;0.50;;;;;;;17.55;52.22;97815.28;5112527;28;20241;-64
2023/01/17 11:30:05;;;;;;;0.63;0.63;;;;;;;17.86;50.59;97802.84;5112035;28;20856;-64
2023/01/17 11:32:33;;;;;;;1.13;1.03;;;;;;;17.48;52.08;97804.09;5112559;28;20205;-63
2023/01/17 11:35:15;;;;;;;0.90;0.90;;;;;;;17.08;50.99;97804.53;5112192;28;20585;-63
2023/01/17 11:37:59;;;;;;;0.50;0.50;;;;;;;16.98;52.39;97804.81;5112451;28;20203;-63
2023/01/17 11:40:29;;;;;;;0.70;0.70;;;;;;;16.50;54.65;97796.72;5111984;28;20224;-64
2023/01/17 11:43:06;;;;;;;1.30;0.90;;;;;;;16.58;55.15;97785.50;5112198;28;20202;-64
2023/01/17 11:45:34;;;;;;;0.67;0.63;;;;;;;16.38;55.38;97787.84;5111820;28;20208;-63
2023/01/17 11:48:11;;;;;;;0.83;0.70;;;;;;;16.26;56.53;97794.41;5111880;28;20203;-63
2023/01/17 11:50:40;;;;;;;0.70;0.70;;;;;;;16.22;55.73;97798.34;5112019;28;20209;-64
2023/01/17 11:53:16;;;;;;;0.77;0.77;;;;;;;16.16;57.15;97799.84;5111749;28;20194;-63
2023/01/17 11:55:56;;;;;;;0.60;0.60;;;;;;;16.35;57.53;97801.09;5112043;28;20200;-64
2023/01/17 11:58:23;;;;;;;0.90;0.70;;;;;;;16.47;58.01;97788.56;5111734;28;20659;-63
2023/01/17 12:00:58;;;;;;;1.10;1.00;;;;;;;16.56;58.84;97790.03;5111621;28;20256;-64
2023/01/17 12:03:40;;;;;;;1.80;1.33;;;;;;;16.51;60.26;97782.84;5111462;28;20223;-63
2023/01/17 12:06:12;;;;;;;0.63;0.63;;;;;;;16.48;60.40;97782.41;5111418;28;20230;-62
2023/01/17 12:08:56;;;;;;;1.03;0.93;;;;;;;16.66;60.69;97775.06;5111969;28;20598;-62
2023/01/17 12:11:36;;;;;;;1.93;1.17;;;;;;;16.67;58.81;97781.84;5111591;28;20203;-62
2023/01/17 12:14:14;;;;;;;1.27;1.00;;;;;;;16.28;62.13;97782.16;5111667;28;20775;-63
2023/01/17 12:17:02;;;;;;;1.93;1.00;;;;;;;16.63;62.38;97777.22;5111790;28;20205;-63
2023/01/17 12:19:40;;;;;;;0.73;0.73;;;;;;;16.93;61.51;97781.34;5111289;28;20245;-64
2023/01/17 12:22:26;;;;;;;1.80;1.10;;;;;;;16.87;60.53;97776.94;5111477;28;20234;-63
2023/01/17 12:25:13;;;;;;;1.10;0.80;;;;;;;17.09;58.65;97769.19;5110818;28;20220;-62
2023/01/17 12:27:53;;;;;;;3.33;1.20;;;;;;;17.28;58.10;97768.56;5111513;28;20319;-63
2023/01/17 12:30:35;;;;;;;1.67;0.93;;;;;;;17.11;57.45;97769.81;5111004;28;20322;-62
2023/01/17 12:33:14;;;;;;;1.30;0.90;;;;;;;17.18;55.54;97762.91;5111280;28;20213;-62
2023/01/17 12:35:49;;;;;;;1.10;1.00;;;;;;;16.51;59.83;97762.19;5111203;28;20206;-62
2023/01/17 12:38:23;;;;;;;1.33;1.03;;;;;;;16.27;63.33;97759.94;5110964;28;20706;-61
2023/01/17 12:40:57;;;;;;;2.23;1.53;;;;;;;16.20;62.94;97762.44;5110978;28;20198;-62
2023/01/17 12:43:31;;;;;;;2.27;1.47;;;;;;;15.80;65.21;97758.50;5110678;28;20194;-62
2023/01/17 12:46:02;;;;;;;1.57;1.17;;;;;;;15.80;66.95;97763.66;5111133;28;20210;-62
2023/01/17 12:48:35;;;;;;;1.57;1.20;;;;;;;15.65;69.27;97760.22;5110805;28;20784;-63
2023/01/17 12:51:08;;;;;;;1.73;1.47;;;;;;;15.26;71.14;97761.22;5110848;28;20573;-62
2023/01/17 12:53:42;;;;;;;1.13;1.03;;;;;;;15.23;71.19;97761.56;5111305;28;20229;-62
2023/01/17 12:56:14;;;;;;;1.87;1.50;;;;;;;15.52;68.13;97766.78;5111309;28;20223;-62
2023/01/17 12:58:47;;;;;;;1.37;1.27;;;;;;;15.07;69.61;97765.88;5110546;28;20213;-63
2023/01/17 13:01:21;;;;;;;1.27;1.17;;;;;;;15.33;70.56;97762.09;5110860;28;20196;-62
2023/01/17 13:04:00;;;;;;;2.50;1.50;;;;;;;14.99;71.53;97760.75;5110685;28;20224;-63
2023/01/17 13:06:31;;;;;;;1.83;1.20;;;;;;;15.26;70.85;97756.06;5110695;28;20224;-63
2023/01/17 13:09:03;;;;;;;1.70;1.40;;;;;;;15.37;69.05;97764.16;5110502;28;20220;-61
2023/01/17 13:11:37;;;;;;;2.57;1.80;;;;;;;15.14;69.80;97761.63;5110823;28;20201;-62
2023/01/17 13:14:09;;;;;;;1.77;1.37;;;;;;;15.23;70.18;97761.56;5110460;28;20705;-63
2023/01/17 13:16:42;;;;;;;1.47;1.17;;;;;;;15.11;69.45;97759.38;5110844;28;20557;-63